sensor_id;sensor_type;location;lat;lon;timestamp;P1;durP1;ratioP1;P2;durP2;ratioP2
3267;SDS011;1646;52.450;13.326;2023-04-25T00:00:07;6.30;;;2.50;;
3267;SDS011;1646;52.450;13.326;2023-04-25T00:05:09;5.87;;;2.30;;
3267;SDS011;1646;52.450;13.326;2023-04-25T00:10:09;2.93;;;2.00;;
3267;SDS011;1646;52.450;13.326;2023-04-25T00:15:08;7.70;;;2.50;;
3267;SDS011;1646;52.450;13.326;2023-04-25T00:20:08;5.37;;;2.47;;
3267;SDS011;1646;52.450;13.326;2023-04-25T00:25:07;6.70;;;2.20;;
3267;SDS011;1646;52.450;13.326;2023-04-25T00:30:07;7.30;;;2.50;;
3267;SDS011;1646;52.450;13.326;2023-04-25T00:35:06;6.43;;;2.47;;
3267;SDS011;1646;52.450;13.326;2023-04-25T00:40:06;4.50;;;2.20;;
3267;SDS011;1646;52.450;13.326;2023-04-25T00:45:07;3.90;;;2.00;;
3267;SDS011;1646;52.450;13.326;2023-04-25T00:50:10;4.00;;;2.43;;
3267;SDS011;1646;52.450;13.326;2023-04-25T00:55:08;4.47;;;2.80;;
3267;SDS011;1646;52.450;13.326;2023-04-25T01:00:10;10.90;;;2.77;;
3267;SDS011;1646;52.450;13.326;2023-04-25T01:05:09;7.87;;;3.27;;
3267;SDS011;1646;52.450;13.326;2023-04-25T01:10:08;7.13;;;3.03;;
3267;SDS011;1646;52.450;13.326;2023-04-25T01:15:07;3.60;;;2.40;;
3267;SDS011;1646;52.450;13.326;2023-04-25T01:20:07;4.50;;;2.53;;
3267;SDS011;1646;52.450;13.326;2023-04-25T01:25:08;8.03;;;2.93;;
3267;SDS011;1646;52.450;13.326;2023-04-25T01:30:07;4.43;;;2.63;;
3267;SDS011;1646;52.450;13.326;2023-04-25T01:35:08;4.43;;;2.97;;
3267;SDS011;1646;52.450;13.326;2023-04-25T01:40:10;6.57;;;3.00;;
3267;SDS011;1646;52.450;13.326;2023-04-25T01:45:09;6.57;;;2.80;;
3267;SDS011;1646;52.450;13.326;2023-04-25T01:50:08;8.70;;;3.00;;
3267;SDS011;1646;52.450;13.326;2023-04-25T01:55:10;8.57;;;4.57;;
3267;SDS011;1646;52.450;13.326;2023-04-25T02:00:18;8.97;;;3.57;;
3267;SDS011;1646;52.450;13.326;2023-04-25T02:05:17;4.73;;;3.30;;
3267;SDS011;1646;52.450;13.326;2023-04-25T02:10:17;6.50;;;3.20;;
3267;SDS011;1646;52.450;13.326;2023-04-25T02:15:32;10.10;;;3.53;;
3267;SDS011;1646;52.450;13.326;2023-04-25T02:20:43;5.57;;;3.53;;
3267;SDS011;1646;52.450;13.326;2023-04-25T02:25:43;7.60;;;3.50;;
3267;SDS011;1646;52.450;13.326;2023-04-25T02:30:41;10.77;;;3.23;;
3267;SDS011;1646;52.450;13.326;2023-04-25T02:35:39;19.23;;;4.30;;
3267;SDS011;1646;52.450;13.326;2023-04-25T02:40:37;7.90;;;3.23;;
3267;SDS011;1646;52.450;13.326;2023-04-25T02:45:37;6.40;;;4.27;;
3267;SDS011;1646;52.450;13.326;2023-04-25T02:50:35;9.67;;;4.40;;
3267;SDS011;1646;52.450;13.326;2023-04-25T02:55:33;6.17;;;3.83;;
3267;SDS011;1646;52.450;13.326;2023-04-25T03:00:33;8.60;;;4.97;;
3267;SDS011;1646;52.450;13.326;2023-04-25T03:05:33;8.70;;;4.40;;
3267;SDS011;1646;52.450;13.326;2023-04-25T03:10:31;7.90;;;4.00;;
3267;SDS011;1646;52.450;13.326;2023-04-25T03:15:33;12.23;;;4.90;;
3267;SDS011;1646;52.450;13.326;2023-04-25T03:20:34;11.80;;;4.23;;
3267;SDS011;1646;52.450;13.326;2023-04-25T03:25:32;6.57;;;3.90;;
3267;SDS011;1646;52.450;13.326;2023-04-25T03:30:33;12.93;;;5.23;;
3267;SDS011;1646;52.450;13.326;2023-04-25T03:35:33;10.97;;;4.30;;
3267;SDS011;1646;52.450;13.326;2023-04-25T03:40:31;8.20;;;4.30;;
3267;SDS011;1646;52.450;13.326;2023-04-25T03:46:08;8.57;;;3.87;;
3267;SDS011;1646;52.450;13.326;2023-04-25T03:51:09;7.17;;;4.30;;
3267;SDS011;1646;52.450;13.326;2023-04-25T03:56:11;12.47;;;6.27;;
3267;SDS011;1646;52.450;13.326;2023-04-25T04:01:10;7.10;;;4.30;;
3267;SDS011;1646;52.450;13.326;2023-04-25T04:06:10;6.67;;;3.93;;
3267;SDS011;1646;52.450;13.326;2023-04-25T04:11:12;10.80;;;4.60;;
3267;SDS011;1646;52.450;13.326;2023-04-25T04:16:10;10.60;;;4.40;;
3267;SDS011;1646;52.450;13.326;2023-04-25T04:21:10;11.27;;;4.00;;
3267;SDS011;1646;52.450;13.326;2023-04-25T04:26:10;6.10;;;4.03;;
3267;SDS011;1646;52.450;13.326;2023-04-25T04:31:24;9.53;;;4.83;;
3267;SDS011;1646;52.450;13.326;2023-04-25T04:36:25;10.27;;;5.30;;
3267;SDS011;1646;52.450;13.326;2023-04-25T04:41:23;12.27;;;5.40;;
3267;SDS011;1646;52.450;13.326;2023-04-25T04:46:38;7.53;;;4.00;;
3267;SDS011;1646;52.450;13.326;2023-04-25T04:52:03;13.10;;;4.57;;
3267;SDS011;1646;52.450;13.326;2023-04-25T04:57:13;10.20;;;5.17;;
3267;SDS011;1646;52.450;13.326;2023-04-25T05:02:31;10.50;;;4.83;;
3267;SDS011;1646;52.450;13.326;2023-04-25T05:07:41;11.33;;;5.33;;
3267;SDS011;1646;52.450;13.326;2023-04-25T05:13:04;10.13;;;4.63;;
3267;SDS011;1646;52.450;13.326;2023-04-25T05:18:31;12.63;;;5.03;;
3267;SDS011;1646;52.450;13.326;2023-04-25T05:23:38;12.87;;;4.23;;
3267;SDS011;1646;52.450;13.326;2023-04-25T05:28:59;10.03;;;4.67;;
3267;SDS011;1646;52.450;13.326;2023-04-25T05:34:26;13.70;;;5.30;;
3267;SDS011;1646;52.450;13.326;2023-04-25T05:39:29;9.20;;;4.33;;
3267;SDS011;1646;52.450;13.326;2023-04-25T05:44:44;9.70;;;4.93;;
3267;SDS011;1646;52.450;13.326;2023-04-25T05:49:52;14.27;;;4.90;;
3267;SDS011;1646;52.450;13.326;2023-04-25T05:55:18;11.50;;;5.73;;
3267;SDS011;1646;52.450;13.326;2023-04-25T06:00:17;14.97;;;4.90;;
3267;SDS011;1646;52.450;13.326;2023-04-25T06:05:18;9.50;;;5.23;;
3267;SDS011;1646;52.450;13.326;2023-04-25T06:10:17;16.73;;;5.33;;
3267;SDS011;1646;52.450;13.326;2023-04-25T06:15:16;12.60;;;6.10;;
3267;SDS011;1646;52.450;13.326;2023-04-25T06:20:17;11.40;;;5.73;;
3267;SDS011;1646;52.450;13.326;2023-04-25T06:25:21;17.43;;;6.67;;
3267;SDS011;1646;52.450;13.326;2023-04-25T06:30:20;14.30;;;6.80;;
3267;SDS011;1646;52.450;13.326;2023-04-25T06:35:27;18.27;;;7.27;;
3267;SDS011;1646;52.450;13.326;2023-04-25T06:40:28;14.80;;;5.80;;
3267;SDS011;1646;52.450;13.326;2023-04-25T06:45:26;9.90;;;5.40;;
3267;SDS011;1646;52.450;13.326;2023-04-25T06:50:25;12.20;;;5.97;;
3267;SDS011;1646;52.450;13.326;2023-04-25T06:55:23;9.30;;;5.90;;
3267;SDS011;1646;52.450;13.326;2023-04-25T07:00:37;11.20;;;5.70;;
3267;SDS011;1646;52.450;13.326;2023-04-25T07:05:35;10.13;;;4.63;;
3267;SDS011;1646;52.450;13.326;2023-04-25T07:10:34;9.03;;;4.33;;
3267;SDS011;1646;52.450;13.326;2023-04-25T07:15:32;9.37;;;4.70;;
3267;SDS011;1646;52.450;13.326;2023-04-25T07:20:33;7.17;;;4.97;;
3267;SDS011;1646;52.450;13.326;2023-04-25T07:25:32;10.03;;;5.53;;
3267;SDS011;1646;52.450;13.326;2023-04-25T07:30:31;8.23;;;4.43;;
3267;SDS011;1646;52.450;13.326;2023-04-25T07:35:34;13.63;;;4.50;;
3267;SDS011;1646;52.450;13.326;2023-04-25T07:40:32;14.57;;;4.30;;
3267;SDS011;1646;52.450;13.326;2023-04-25T07:45:35;10.17;;;4.50;;
3267;SDS011;1646;52.450;13.326;2023-04-25T07:50:35;9.80;;;4.47;;
3267;SDS011;1646;52.450;13.326;2023-04-25T07:55:34;10.20;;;4.50;;
3267;SDS011;1646;52.450;13.326;2023-04-25T08:00:41;22.00;;;4.63;;
3267;SDS011;1646;52.450;13.326;2023-04-25T08:05:55;14.87;;;5.80;;
3267;SDS011;1646;52.450;13.326;2023-04-25T08:10:57;11.90;;;4.50;;
3267;SDS011;1646;52.450;13.326;2023-04-25T08:15:56;24.00;;;5.57;;
3267;SDS011;1646;52.450;13.326;2023-04-25T08:20:55;15.73;;;4.93;;
3267;SDS011;1646;52.450;13.326;2023-04-25T08:25:54;12.43;;;4.10;;
3267;SDS011;1646;52.450;13.326;2023-04-25T08:30:56;12.20;;;4.10;;
3267;SDS011;1646;52.450;13.326;2023-04-25T08:36:03;15.03;;;4.23;;
3267;SDS011;1646;52.450;13.326;2023-04-25T08:41:02;20.63;;;3.67;;
3267;SDS011;1646;52.450;13.326;2023-04-25T08:46:01;14.43;;;3.83;;
3267;SDS011;1646;52.450;13.326;2023-04-25T08:51:12;14.97;;;3.40;;
3267;SDS011;1646;52.450;13.326;2023-04-25T08:56:19;13.43;;;2.80;;
3267;SDS011;1646;52.450;13.326;2023-04-25T09:01:19;17.07;;;3.67;;
3267;SDS011;1646;52.450;13.326;2023-04-25T09:06:23;19.57;;;3.33;;
3267;SDS011;1646;52.450;13.326;2023-04-25T09:11:22;9.27;;;2.60;;
3267;SDS011;1646;52.450;13.326;2023-04-25T09:16:22;10.87;;;3.00;;
3267;SDS011;1646;52.450;13.326;2023-04-25T09:21:42;12.47;;;2.90;;
3267;SDS011;1646;52.450;13.326;2023-04-25T09:26:42;11.47;;;2.83;;
3267;SDS011;1646;52.450;13.326;2023-04-25T09:31:41;9.23;;;3.43;;
3267;SDS011;1646;52.450;13.326;2023-04-25T09:36:42;15.13;;;3.47;;
3267;SDS011;1646;52.450;13.326;2023-04-25T09:41:53;14.70;;;4.07;;
3267;SDS011;1646;52.450;13.326;2023-04-25T09:46:52;8.43;;;3.73;;
3267;SDS011;1646;52.450;13.326;2023-04-25T09:51:55;8.97;;;3.10;;
3267;SDS011;1646;52.450;13.326;2023-04-25T09:56:59;13.80;;;3.60;;
3267;SDS011;1646;52.450;13.326;2023-04-25T10:02:07;9.43;;;2.83;;
3267;SDS011;1646;52.450;13.326;2023-04-25T10:07:09;13.67;;;3.90;;
3267;SDS011;1646;52.450;13.326;2023-04-25T10:12:13;14.03;;;3.57;;
3267;SDS011;1646;52.450;13.326;2023-04-25T10:17:12;14.43;;;3.13;;
3267;SDS011;1646;52.450;13.326;2023-04-25T10:22:14;11.10;;;3.20;;
3267;SDS011;1646;52.450;13.326;2023-04-25T10:27:17;11.27;;;3.53;;
3267;SDS011;1646;52.450;13.326;2023-04-25T10:32:16;7.37;;;2.70;;
3267;SDS011;1646;52.450;13.326;2023-04-25T10:37:16;7.57;;;3.37;;
3267;SDS011;1646;52.450;13.326;2023-04-25T10:42:16;9.53;;;2.43;;
3267;SDS011;1646;52.450;13.326;2023-04-25T10:47:15;12.40;;;2.73;;
3267;SDS011;1646;52.450;13.326;2023-04-25T10:52:34;7.23;;;2.20;;
3267;SDS011;1646;52.450;13.326;2023-04-25T10:57:35;9.43;;;2.70;;
3267;SDS011;1646;52.450;13.326;2023-04-25T11:02:38;8.97;;;2.40;;
3267;SDS011;1646;52.450;13.326;2023-04-25T11:07:44;10.63;;;2.57;;
3267;SDS011;1646;52.450;13.326;2023-04-25T11:13:02;5.10;;;2.30;;
3267;SDS011;1646;52.450;13.326;2023-04-25T11:18:02;7.00;;;2.73;;
3267;SDS011;1646;52.450;13.326;2023-04-25T11:23:02;9.67;;;2.90;;
3267;SDS011;1646;52.450;13.326;2023-04-25T11:28:05;9.10;;;2.60;;
3267;SDS011;1646;52.450;13.326;2023-04-25T11:33:03;9.90;;;2.70;;
3267;SDS011;1646;52.450;13.326;2023-04-25T11:38:03;7.47;;;1.97;;
3267;SDS011;1646;52.450;13.326;2023-04-25T11:43:02;4.90;;;2.20;;
3267;SDS011;1646;52.450;13.326;2023-04-25T11:48:01;10.77;;;2.03;;
3267;SDS011;1646;52.450;13.326;2023-04-25T11:53:00;9.70;;;2.00;;
3267;SDS011;1646;52.450;13.326;2023-04-25T11:58:00;4.33;;;1.87;;
3267;SDS011;1646;52.450;13.326;2023-04-25T12:02:58;3.70;;;1.60;;
3267;SDS011;1646;52.450;13.326;2023-04-25T12:08:09;8.63;;;2.33;;
3267;SDS011;1646;52.450;13.326;2023-04-25T12:13:19;11.73;;;2.67;;
3267;SDS011;1646;52.450;13.326;2023-04-25T12:18:19;6.07;;;2.20;;
3267;SDS011;1646;52.450;13.326;2023-04-25T12:23:24;6.43;;;2.23;;
3267;SDS011;1646;52.450;13.326;2023-04-25T12:28:25;10.20;;;3.00;;
3267;SDS011;1646;52.450;13.326;2023-04-25T12:33:24;7.80;;;2.40;;
3267;SDS011;1646;52.450;13.326;2023-04-25T12:38:24;3.03;;;1.63;;
3267;SDS011;1646;52.450;13.326;2023-04-25T12:43:22;5.63;;;1.90;;
3267;SDS011;1646;52.450;13.326;2023-04-25T12:48:22;4.90;;;1.80;;
3267;SDS011;1646;52.450;13.326;2023-04-25T12:53:21;10.43;;;2.20;;
3267;SDS011;1646;52.450;13.326;2023-04-25T12:58:20;9.30;;;3.37;;
3267;SDS011;1646;52.450;13.326;2023-04-25T13:03:21;5.93;;;1.83;;
3267;SDS011;1646;52.450;13.326;2023-04-25T13:08:19;5.23;;;1.63;;
3267;SDS011;1646;52.450;13.326;2023-04-25T13:13:17;3.53;;;1.60;;
3267;SDS011;1646;52.450;13.326;2023-04-25T13:18:16;3.37;;;1.63;;
3267;SDS011;1646;52.450;13.326;2023-04-25T13:23:16;2.20;;;1.67;;
3267;SDS011;1646;52.450;13.326;2023-04-25T13:28:14;7.50;;;2.43;;
3267;SDS011;1646;52.450;13.326;2023-04-25T13:33:12;9.93;;;1.80;;
3267;SDS011;1646;52.450;13.326;2023-04-25T13:38:10;3.27;;;1.70;;
3267;SDS011;1646;52.450;13.326;2023-04-25T13:43:10;2.70;;;1.67;;
3267;SDS011;1646;52.450;13.326;2023-04-25T13:48:08;7.17;;;2.00;;
3267;SDS011;1646;52.450;13.326;2023-04-25T13:53:06;9.47;;;2.00;;
3267;SDS011;1646;52.450;13.326;2023-04-25T13:58:04;4.57;;;1.93;;
3267;SDS011;1646;52.450;13.326;2023-04-25T14:03:05;5.37;;;1.50;;
3267;SDS011;1646;52.450;13.326;2023-04-25T14:08:05;3.37;;;1.60;;
3267;SDS011;1646;52.450;13.326;2023-04-25T14:13:04;8.13;;;2.13;;
3267;SDS011;1646;52.450;13.326;2023-04-25T14:18:07;5.60;;;2.10;;
3267;SDS011;1646;52.450;13.326;2023-04-25T14:23:05;6.13;;;1.53;;
3267;SDS011;1646;52.450;13.326;2023-04-25T14:28:03;8.07;;;2.30;;
3267;SDS011;1646;52.450;13.326;2023-04-25T14:33:01;8.83;;;2.00;;
3267;SDS011;1646;52.450;13.326;2023-04-25T14:38:01;3.70;;;1.40;;
3267;SDS011;1646;52.450;13.326;2023-04-25T14:42:59;4.10;;;2.23;;
3267;SDS011;1646;52.450;13.326;2023-04-25T14:47:57;5.57;;;1.53;;
3267;SDS011;1646;52.450;13.326;2023-04-25T14:52:55;5.60;;;1.60;;
3267;SDS011;1646;52.450;13.326;2023-04-25T14:57:56;5.87;;;2.00;;
3267;SDS011;1646;52.450;13.326;2023-04-25T15:02:55;3.23;;;2.10;;
3267;SDS011;1646;52.450;13.326;2023-04-25T15:07:53;4.93;;;1.60;;
3267;SDS011;1646;52.450;13.326;2023-04-25T15:12:51;8.10;;;1.93;;
3267;SDS011;1646;52.450;13.326;2023-04-25T15:17:52;5.03;;;1.90;;
3267;SDS011;1646;52.450;13.326;2023-04-25T15:22:54;3.47;;;1.33;;
3267;SDS011;1646;52.450;13.326;2023-04-25T15:27:52;4.27;;;1.40;;
3267;SDS011;1646;52.450;13.326;2023-04-25T15:32:52;4.93;;;1.53;;
3267;SDS011;1646;52.450;13.326;2023-04-25T15:37:50;6.33;;;1.13;;
3267;SDS011;1646;52.450;13.326;2023-04-25T15:42:49;3.70;;;1.30;;
3267;SDS011;1646;52.450;13.326;2023-04-25T15:47:48;3.67;;;1.30;;
3267;SDS011;1646;52.450;13.326;2023-04-25T15:52:49;5.33;;;0.93;;
3267;SDS011;1646;52.450;13.326;2023-04-25T15:57:48;3.57;;;1.30;;
3267;SDS011;1646;52.450;13.326;2023-04-25T16:02:47;3.60;;;1.30;;
3267;SDS011;1646;52.450;13.326;2023-04-25T16:07:46;2.30;;;1.23;;
3267;SDS011;1646;52.450;13.326;2023-04-25T16:12:46;2.70;;;1.20;;
3267;SDS011;1646;52.450;13.326;2023-04-25T16:17:44;3.03;;;1.33;;
3267;SDS011;1646;52.450;13.326;2023-04-25T16:22:42;5.10;;;1.10;;
3267;SDS011;1646;52.450;13.326;2023-04-25T16:27:41;5.60;;;1.60;;
3267;SDS011;1646;52.450;13.326;2023-04-25T16:32:40;3.27;;;1.27;;
3267;SDS011;1646;52.450;13.326;2023-04-25T16:37:41;4.93;;;1.33;;
3267;SDS011;1646;52.450;13.326;2023-04-25T16:42:39;2.03;;;1.00;;
3267;SDS011;1646;52.450;13.326;2023-04-25T16:47:37;3.17;;;1.50;;
3267;SDS011;1646;52.450;13.326;2023-04-25T16:52:37;3.40;;;1.37;;
3267;SDS011;1646;52.450;13.326;2023-04-25T16:57:35;3.47;;;1.40;;
3267;SDS011;1646;52.450;13.326;2023-04-25T17:02:33;4.40;;;1.57;;
3267;SDS011;1646;52.450;13.326;2023-04-25T17:07:32;4.57;;;1.30;;
3267;SDS011;1646;52.450;13.326;2023-04-25T17:12:31;3.47;;;1.20;;
3267;SDS011;1646;52.450;13.326;2023-04-25T17:17:29;7.03;;;1.30;;
3267;SDS011;1646;52.450;13.326;2023-04-25T17:22:28;1.90;;;1.20;;
3267;SDS011;1646;52.450;13.326;2023-04-25T17:27:27;3.33;;;1.00;;
3267;SDS011;1646;52.450;13.326;2023-04-25T17:32:26;6.33;;;1.00;;
3267;SDS011;1646;52.450;13.326;2023-04-25T17:37:24;4.07;;;1.67;;
3267;SDS011;1646;52.450;13.326;2023-04-25T17:42:23;8.20;;;1.23;;
3267;SDS011;1646;52.450;13.326;2023-04-25T17:47:22;5.33;;;1.50;;
3267;SDS011;1646;52.450;13.326;2023-04-25T17:52:21;4.70;;;1.63;;
3267;SDS011;1646;52.450;13.326;2023-04-25T17:57:20;6.00;;;1.47;;
3267;SDS011;1646;52.450;13.326;2023-04-25T18:02:20;4.70;;;1.20;;
3267;SDS011;1646;52.450;13.326;2023-04-25T18:07:18;2.33;;;1.40;;
3267;SDS011;1646;52.450;13.326;2023-04-25T18:12:18;4.50;;;1.20;;
3267;SDS011;1646;52.450;13.326;2023-04-25T18:17:16;4.50;;;1.40;;
3267;SDS011;1646;52.450;13.326;2023-04-25T18:22:15;3.37;;;1.50;;
3267;SDS011;1646;52.450;13.326;2023-04-25T18:27:14;3.40;;;1.40;;
3267;SDS011;1646;52.450;13.326;2023-04-25T18:32:13;6.47;;;1.73;;
3267;SDS011;1646;52.450;13.326;2023-04-25T18:37:12;4.20;;;1.43;;
3267;SDS011;1646;52.450;13.326;2023-04-25T18:42:10;3.97;;;1.50;;
3267;SDS011;1646;52.450;13.326;2023-04-25T18:47:08;9.63;;;2.20;;
3267;SDS011;1646;52.450;13.326;2023-04-25T18:52:09;6.80;;;1.70;;
3267;SDS011;1646;52.450;13.326;2023-04-25T18:57:10;3.17;;;1.40;;
3267;SDS011;1646;52.450;13.326;2023-04-25T19:02:10;2.30;;;1.10;;
3267;SDS011;1646;52.450;13.326;2023-04-25T19:07:09;4.67;;;2.33;;
3267;SDS011;1646;52.450;13.326;2023-04-25T19:12:08;6.20;;;2.00;;
3267;SDS011;1646;52.450;13.326;2023-04-25T19:17:06;8.40;;;1.63;;
3267;SDS011;1646;52.450;13.326;2023-04-25T19:22:04;7.13;;;2.03;;
3267;SDS011;1646;52.450;13.326;2023-04-25T19:27:04;7.50;;;2.50;;
3267;SDS011;1646;52.450;13.326;2023-04-25T19:32:02;3.97;;;1.60;;
3267;SDS011;1646;52.450;13.326;2023-04-25T19:37:00;5.33;;;1.47;;
3267;SDS011;1646;52.450;13.326;2023-04-25T19:41:58;3.73;;;1.47;;
3267;SDS011;1646;52.450;13.326;2023-04-25T19:46:59;4.43;;;1.13;;
3267;SDS011;1646;52.450;13.326;2023-04-25T19:51:57;4.50;;;1.20;;
3267;SDS011;1646;52.450;13.326;2023-04-25T19:56:55;5.10;;;1.60;;
3267;SDS011;1646;52.450;13.326;2023-04-25T20:01:54;6.17;;;1.40;;
3267;SDS011;1646;52.450;13.326;2023-04-25T20:06:53;9.23;;;1.40;;
3267;SDS011;1646;52.450;13.326;2023-04-25T20:11:51;4.03;;;1.87;;
3267;SDS011;1646;52.450;13.326;2023-04-25T20:16:49;7.90;;;3.10;;
3267;SDS011;1646;52.450;13.326;2023-04-25T20:21:48;8.03;;;1.73;;
3267;SDS011;1646;52.450;13.326;2023-04-25T20:26:47;4.00;;;1.93;;
3267;SDS011;1646;52.450;13.326;2023-04-25T20:31:45;9.03;;;1.77;;
3267;SDS011;1646;52.450;13.326;2023-04-25T20:36:45;6.33;;;1.60;;
3267;SDS011;1646;52.450;13.326;2023-04-25T20:41:44;16.63;;;1.80;;
3267;SDS011;1646;52.450;13.326;2023-04-25T20:46:44;6.00;;;1.40;;
3267;SDS011;1646;52.450;13.326;2023-04-25T20:51:43;8.33;;;2.13;;
3267;SDS011;1646;52.450;13.326;2023-04-25T20:56:41;8.40;;;2.10;;
3267;SDS011;1646;52.450;13.326;2023-04-25T21:01:40;7.17;;;2.43;;
3267;SDS011;1646;52.450;13.326;2023-04-25T21:06:39;2.90;;;1.20;;
3267;SDS011;1646;52.450;13.326;2023-04-25T21:11:38;6.40;;;2.10;;
3267;SDS011;1646;52.450;13.326;2023-04-25T21:16:36;6.90;;;1.83;;
3267;SDS011;1646;52.450;13.326;2023-04-25T21:21:34;4.47;;;1.50;;
3267;SDS011;1646;52.450;13.326;2023-04-25T21:26:34;7.37;;;2.50;;
3267;SDS011;1646;52.450;13.326;2023-04-25T21:31:32;3.70;;;1.40;;
3267;SDS011;1646;52.450;13.326;2023-04-25T21:36:31;7.47;;;1.57;;
3267;SDS011;1646;52.450;13.326;2023-04-25T21:41:30;1.93;;;1.40;;
3267;SDS011;1646;52.450;13.326;2023-04-25T21:46:30;3.93;;;1.40;;
3267;SDS011;1646;52.450;13.326;2023-04-25T21:51:28;6.97;;;2.60;;
3267;SDS011;1646;52.450;13.326;2023-04-25T21:56:27;9.20;;;1.37;;
3267;SDS011;1646;52.450;13.326;2023-04-25T22:01:26;15.07;;;2.30;;
3267;SDS011;1646;52.450;13.326;2023-04-25T22:06:25;2.27;;;1.33;;
3267;SDS011;1646;52.450;13.326;2023-04-25T22:11:24;3.17;;;1.50;;
3267;SDS011;1646;52.450;13.326;2023-04-25T22:16:23;8.07;;;1.90;;
3267;SDS011;1646;52.450;13.326;2023-04-25T22:21:22;8.20;;;1.50;;
3267;SDS011;1646;52.450;13.326;2023-04-25T22:26:22;5.03;;;2.10;;
3267;SDS011;1646;52.450;13.326;2023-04-25T22:31:20;7.20;;;1.53;;
3267;SDS011;1646;52.450;13.326;2023-04-25T22:36:19;4.83;;;1.67;;
3267;SDS011;1646;52.450;13.326;2023-04-25T22:41:19;2.43;;;1.10;;
3267;SDS011;1646;52.450;13.326;2023-04-25T22:46:20;2.40;;;1.20;;
3267;SDS011;1646;52.450;13.326;2023-04-25T22:51:18;8.03;;;1.53;;
3267;SDS011;1646;52.450;13.326;2023-04-25T22:56:16;5.80;;;1.50;;
3267;SDS011;1646;52.450;13.326;2023-04-25T23:01:14;7.93;;;2.10;;
3267;SDS011;1646;52.450;13.326;2023-04-25T23:06:16;4.63;;;1.40;;
3267;SDS011;1646;52.450;13.326;2023-04-25T23:11:14;6.70;;;1.73;;
3267;SDS011;1646;52.450;13.326;2023-04-25T23:16:12;7.13;;;1.80;;
3267;SDS011;1646;52.450;13.326;2023-04-25T23:21:10;8.57;;;1.80;;
3267;SDS011;1646;52.450;13.326;2023-04-25T23:26:10;8.33;;;1.70;;
3267;SDS011;1646;52.450;13.326;2023-04-25T23:31:08;6.10;;;1.53;;
3267;SDS011;1646;52.450;13.326;2023-04-25T23:36:08;4.90;;;1.73;;
3267;SDS011;1646;52.450;13.326;2023-04-25T23:41:16;5.63;;;1.97;;
3267;SDS011;1646;52.450;13.326;2023-04-25T23:46:14;4.87;;;1.60;;
3267;SDS011;1646;52.450;13.326;2023-04-25T23:51:14;10.83;;;1.80;;
3267;SDS011;1646;52.450;13.326;2023-04-25T23:56:12;7.60;;;1.90;;
